createdAt,value
2022-08-24T00:01:09.549Z,99.90
2022-08-24T00:04:11.304Z,99.90
2022-08-24T00:07:27.509Z,99.90
2022-08-24T00:10:29.975Z,99.90
2022-08-24T00:13:32.540Z,99.90
2022-08-24T00:16:38.579Z,99.90
2022-08-24T00:19:40.570Z,99.90
2022-08-24T00:22:42.839Z,99.90
2022-08-24T00:25:44.792Z,99.90
2022-08-24T00:28:46.736Z,99.90
2022-08-24T00:31:49.591Z,99.90
2022-08-24T00:34:58.457Z,99.90
2022-08-24T00:38:01.065Z,99.90
2022-08-24T00:41:04.359Z,99.90
2022-08-24T00:44:06.633Z,99.90
2022-08-24T00:47:18.362Z,99.90
2022-08-24T00:50:34.974Z,99.90
2022-08-24T00:53:43.077Z,99.90
2022-08-24T00:56:54.441Z,99.90
2022-08-24T01:00:00.630Z,99.90
2022-08-24T01:03:05.292Z,99.90
2022-08-24T01:06:07.445Z,99.90
2022-08-24T01:09:09.316Z,99.90
2022-08-24T01:12:12.280Z,99.90
2022-08-24T01:15:14.987Z,99.90
2022-08-24T01:18:39.641Z,99.90
2022-08-24T01:22:05.001Z,99.90
2022-08-24T01:25:07.785Z,99.90
2022-08-24T01:28:15.148Z,99.90
2022-08-24T01:31:23.746Z,99.90
2022-08-24T01:34:25.691Z,99.90
2022-08-24T01:37:27.608Z,99.90
2022-08-24T01:40:38.421Z,99.90
2022-08-24T01:43:40.511Z,99.90
2022-08-24T01:46:47.452Z,99.90
2022-08-24T01:49:49.971Z,99.90
2022-08-24T01:53:08.566Z,99.90
2022-08-24T01:56:10.299Z,99.90
2022-08-24T01:59:12.721Z,99.90
2022-08-24T02:02:21.463Z,99.90
2022-08-24T02:05:24.361Z,99.90
2022-08-24T02:08:26.220Z,99.90
2022-08-24T02:11:29.087Z,99.90
2022-08-24T02:14:32.955Z,99.90
2022-08-24T02:17:36.959Z,99.90
2022-08-24T02:20:39.040Z,99.90
2022-08-24T02:23:42.595Z,99.90
2022-08-24T02:26:44.639Z,99.90
2022-08-24T02:29:46.961Z,99.90
2022-08-24T02:32:48.961Z,99.90
2022-08-24T02:35:51.735Z,99.90
2022-08-24T02:38:55.367Z,99.90
2022-08-24T02:41:57.853Z,99.90
2022-08-24T02:45:01.757Z,99.90
2022-08-24T02:48:04.130Z,99.90
2022-08-24T02:51:05.887Z,99.90
2022-08-24T02:54:09.388Z,99.90
2022-08-24T02:57:11.106Z,99.90
2022-08-24T03:00:16.851Z,99.90
2022-08-24T03:03:18.839Z,99.90
2022-08-24T03:06:21.080Z,99.90
2022-08-24T03:09:23.546Z,99.90
2022-08-24T03:12:25.634Z,99.90
2022-08-24T03:15:28.281Z,99.90
2022-08-24T03:18:30.360Z,99.90
2022-08-24T03:21:33.321Z,99.90
2022-08-24T03:24:35.390Z,99.90
2022-08-24T03:27:37.774Z,99.90
2022-08-24T03:30:42.065Z,99.90
2022-08-24T03:33:49.194Z,99.90
2022-08-24T03:36:50.962Z,99.90
2022-08-24T03:39:52.740Z,99.90
2022-08-24T03:42:55.533Z,99.90
2022-08-24T03:45:57.325Z,99.90
2022-08-24T03:48:59.282Z,99.90
2022-08-24T03:52:00.994Z,99.90
2022-08-24T03:55:05.993Z,99.90
2022-08-24T03:58:08.105Z,99.90
2022-08-24T04:01:10.648Z,99.90
2022-08-24T04:04:12.363Z,99.90
2022-08-24T04:07:14.092Z,99.90
2022-08-24T04:10:15.895Z,99.90
2022-08-24T04:13:17.855Z,99.90
2022-08-24T04:16:21.287Z,99.90
2022-08-24T04:19:23.255Z,99.90
2022-08-24T04:22:27.272Z,99.90
2022-08-24T04:25:28.994Z,99.90
2022-08-24T04:28:31.658Z,99.90
2022-08-24T04:31:36.235Z,99.90
2022-08-24T04:34:38.607Z,99.90
2022-08-24T04:37:40.559Z,99.90
2022-08-24T04:40:45.439Z,99.90
2022-08-24T04:43:50.850Z,99.90
2022-08-24T04:46:53.002Z,99.90
2022-08-24T04:49:54.752Z,99.90
2022-08-24T04:52:57.129Z,99.90
2022-08-24T04:55:59.576Z,99.90
2022-08-24T04:59:01.596Z,99.90
2022-08-24T05:02:03.400Z,99.90
2022-08-24T05:05:06.873Z,99.90
2022-08-24T05:08:09.259Z,99.90
2022-08-24T05:11:12.098Z,99.90
2022-08-24T05:14:13.895Z,99.90
2022-08-24T05:17:15.854Z,99.90
2022-08-24T05:20:18.023Z,99.90
2022-08-24T05:23:19.808Z,99.90
2022-08-24T05:26:25.913Z,99.90
2022-08-24T05:29:28.075Z,99.90
2022-08-24T05:32:29.913Z,99.90
2022-08-24T05:35:36.795Z,99.90
2022-08-24T05:38:40.280Z,99.90
2022-08-24T05:41:44.203Z,99.90
2022-08-24T05:44:46.801Z,99.90
2022-08-24T05:47:48.776Z,99.90
2022-08-24T05:50:57.809Z,99.90
2022-08-24T05:54:00.633Z,99.90
2022-08-24T05:57:05.182Z,99.90
2022-08-24T06:00:14.068Z,99.90
2022-08-24T06:03:17.030Z,99.90
2022-08-24T06:06:20.829Z,99.90
2022-08-24T06:09:22.831Z,99.90
2022-08-24T06:12:24.594Z,99.90
2022-08-24T06:15:26.440Z,99.90
2022-08-24T06:18:28.129Z,99.90
2022-08-24T06:21:41.211Z,99.90
2022-08-24T06:25:01.760Z,99.90
2022-08-24T06:28:04.473Z,99.90
2022-08-24T06:31:10.036Z,99.90
2022-08-24T06:34:14.102Z,99.90
2022-08-24T06:37:16.500Z,99.90
2022-08-24T06:40:20.546Z,99.90
2022-08-24T06:43:24.074Z,99.90
2022-08-24T06:46:31.994Z,99.90
2022-08-24T06:49:34.659Z,99.90
2022-08-24T06:52:36.613Z,99.90
2022-08-24T06:55:43.764Z,99.90
2022-08-24T06:58:46.118Z,99.90
2022-08-24T07:01:47.961Z,99.90
2022-08-24T07:04:49.783Z,99.90
2022-08-24T07:07:51.516Z,99.90
2022-08-24T07:10:53.251Z,99.90
2022-08-24T07:13:55.003Z,99.90
2022-08-24T07:16:58.329Z,99.90
2022-08-24T07:20:00.301Z,99.90
2022-08-24T07:23:02.538Z,99.90
2022-08-24T07:26:09.819Z,99.90
2022-08-24T07:29:46.296Z,99.90
2022-08-24T07:32:44.688Z,99.90
2022-08-24T07:35:47.194Z,99.90
2022-08-24T07:38:49.144Z,99.90
2022-08-24T07:42:11.536Z,99.90
2022-08-24T07:45:12.576Z,99.90
2022-08-24T07:48:14.481Z,99.90
2022-08-24T07:51:19.497Z,99.90
2022-08-24T07:54:21.683Z,99.90
2022-08-24T07:57:23.642Z,99.90
2022-08-24T08:00:25.810Z,99.90
2022-08-24T08:03:29.334Z,99.90
2022-08-24T08:06:31.383Z,99.90
2022-08-24T08:09:36.154Z,99.90
2022-08-24T08:12:38.095Z,99.90
2022-08-24T08:15:40.104Z,99.90
2022-08-24T08:18:43.289Z,99.90
2022-08-24T08:22:09.333Z,99.90
2022-08-24T08:25:11.225Z,99.90
2022-08-24T08:28:25.291Z,99.90
2022-08-24T08:31:28.402Z,99.90
2022-08-24T08:34:31.504Z,99.90
2022-08-24T08:37:33.548Z,99.90
2022-08-24T08:40:55.554Z,99.90
2022-08-24T08:44:06.400Z,99.90
2022-08-24T08:47:27.046Z,99.90
2022-08-24T08:50:50.399Z,99.90
2022-08-24T08:54:22.494Z,99.90
2022-08-24T08:57:39.901Z,99.90
2022-08-24T09:01:16.171Z,99.90
2022-08-24T09:04:44.648Z,99.90
2022-08-24T09:07:52.028Z,99.90
2022-08-24T09:11:19.138Z,99.90
2022-08-24T09:14:39.823Z,99.90
2022-08-24T09:18:08.421Z,99.90
2022-08-24T09:21:28.747Z,99.90
2022-08-24T09:24:33.492Z,99.90
2022-08-24T09:27:54.953Z,99.90
2022-08-24T09:31:21.511Z,99.70
2022-08-24T09:34:32.815Z,99.40
2022-08-24T09:37:59.568Z,98.60
2022-08-24T09:41:35.270Z,98.70
2022-08-24T09:45:01.792Z,98.50
2022-08-24T09:48:36.467Z,98.60
2022-08-24T09:51:56.103Z,98.80
2022-08-24T09:55:31.019Z,98.60
2022-08-24T09:58:54.678Z,98.80
2022-08-24T10:02:11.677Z,98.10
2022-08-24T10:05:36.370Z,98.40
2022-08-24T10:08:44.360Z,98.00
2022-08-24T10:11:54.465Z,97.50
2022-08-24T10:15:07.867Z,97.70
2022-08-24T10:18:38.784Z,97.60
2022-08-24T10:21:55.390Z,96.70
2022-08-24T10:25:27.965Z,95.40
2022-08-24T10:29:07.511Z,95.60
2022-08-24T10:32:47.575Z,95.50
2022-08-24T10:36:21.067Z,95.40
2022-08-24T10:40:09.520Z,94.90
2022-08-24T10:43:35.661Z,94.40
2022-08-24T10:46:49.454Z,94.10
2022-08-24T10:50:05.641Z,94.20
2022-08-24T10:53:26.255Z,95.00
2022-08-24T10:56:39.396Z,95.10
2022-08-24T11:00:05.974Z,94.80
2022-08-24T11:03:27.762Z,94.00
2022-08-24T11:06:43.324Z,93.60
2022-08-24T11:09:56.248Z,93.50
2022-08-24T11:13:25.005Z,93.20
2022-08-24T11:16:36.646Z,93.00
2022-08-24T11:19:38.525Z,93.20
2022-08-24T11:23:00.034Z,93.30
2022-08-24T11:26:03.785Z,92.80
2022-08-24T11:29:06.527Z,92.60
2022-08-24T11:32:09.229Z,92.20
2022-08-24T11:35:28.524Z,92.10
2022-08-24T11:38:34.950Z,92.70
2022-08-24T11:42:04.614Z,92.30
2022-08-24T11:45:39.292Z,92.40
2022-08-24T11:49:22.601Z,92.30
2022-08-24T11:52:33.399Z,92.20
2022-08-24T11:55:47.229Z,91.90
2022-08-24T11:59:02.404Z,92.10
2022-08-24T12:02:21.952Z,92.00
2022-08-24T12:05:28.457Z,91.70
2022-08-24T12:08:55.271Z,91.40
2022-08-24T12:12:08.783Z,91.30
2022-08-24T12:15:18.746Z,91.50
2022-08-24T12:18:30.234Z,91.40
2022-08-24T12:21:36.648Z,91.60
2022-08-24T12:24:48.658Z,91.50
2022-08-24T12:27:51.836Z,91.60
2022-08-24T12:30:54.578Z,91.70
2022-08-24T12:34:00.181Z,91.00
2022-08-24T12:37:02.365Z,91.10
2022-08-24T12:40:22.644Z,90.80
2022-08-24T12:43:37.297Z,90.60
2022-08-24T12:46:40.430Z,90.50
2022-08-24T12:49:49.401Z,91.00
2022-08-24T12:53:33.212Z,90.80
2022-08-24T12:56:46.751Z,90.70
2022-08-24T12:59:52.617Z,90.60
2022-08-24T13:02:58.917Z,90.70
2022-08-24T13:06:11.836Z,90.10
2022-08-24T13:09:46.361Z,89.50
2022-08-24T13:13:08.615Z,88.90
2022-08-24T13:16:11.103Z,89.50
2022-08-24T13:19:33.668Z,89.60
2022-08-24T13:22:46.983Z,89.90
2022-08-24T13:25:51.546Z,90.00
2022-08-24T13:28:56.963Z,89.00
2022-08-24T13:32:00.519Z,88.80
2022-08-24T13:35:36.789Z,88.60
2022-08-24T13:38:56.972Z,89.30
2022-08-24T13:42:29.502Z,88.50
2022-08-24T13:45:33.948Z,88.60
2022-08-24T13:49:01.574Z,88.70
2022-08-24T13:52:30.470Z,87.80
2022-08-24T13:55:53.289Z,87.60
2022-08-24T13:59:01.310Z,87.10
2022-08-24T14:02:35.598Z,86.90
2022-08-24T14:05:49.392Z,86.60
2022-08-24T14:09:28.415Z,87.00
2022-08-24T14:13:03.057Z,87.60
2022-08-24T14:16:51.259Z,87.60
2022-08-24T14:20:04.893Z,87.80
2022-08-24T14:23:16.480Z,87.70
2022-08-24T14:26:43.537Z,87.90
2022-08-24T14:29:46.632Z,87.80
2022-08-24T14:33:01.086Z,86.70
2022-08-24T14:36:19.089Z,87.00
2022-08-24T14:39:26.910Z,86.70
2022-08-24T14:42:44.238Z,87.60
2022-08-24T14:46:05.239Z,86.30
2022-08-24T14:49:35.727Z,85.30
2022-08-24T14:52:45.633Z,85.00
2022-08-24T14:56:09.790Z,85.40
2022-08-24T14:59:33.035Z,85.70
2022-08-24T15:02:43.582Z,86.30
2022-08-24T15:06:26.766Z,86.50
2022-08-24T15:09:35.608Z,86.50
2022-08-24T15:12:51.020Z,86.60
2022-08-24T15:15:58.838Z,86.60
2022-08-24T15:19:07.646Z,86.20
2022-08-24T15:22:21.088Z,85.70
2022-08-24T15:25:44.435Z,85.40
2022-08-24T15:28:56.471Z,84.70
2022-08-24T15:32:11.707Z,84.70
2022-08-24T15:35:32.794Z,84.60
2022-08-24T15:38:36.995Z,84.70
2022-08-24T15:41:42.290Z,84.80
2022-08-24T15:44:47.001Z,85.00
2022-08-24T15:47:51.920Z,84.80
2022-08-24T15:50:56.444Z,83.80
2022-08-24T15:53:58.664Z,84.30
2022-08-24T15:57:18.486Z,85.00
2022-08-24T16:01:03.394Z,84.60
2022-08-24T16:04:31.505Z,84.80
2022-08-24T16:08:02.312Z,85.10
2022-08-24T16:12:06.965Z,84.70
2022-08-24T16:15:19.775Z,84.50
2022-08-24T16:18:22.142Z,84.50
2022-08-24T16:21:36.764Z,84.50
2022-08-24T16:24:42.813Z,85.00
2022-08-24T16:28:07.812Z,84.60
2022-08-24T16:31:11.748Z,83.60
2022-08-24T16:34:28.775Z,83.80
2022-08-24T16:37:31.268Z,84.20
2022-08-24T16:40:34.464Z,84.00
2022-08-24T16:43:46.110Z,83.90
2022-08-24T16:46:48.257Z,84.00
2022-08-24T16:49:50.790Z,84.40
2022-08-24T16:52:52.731Z,84.20
2022-08-24T16:55:57.210Z,84.20
2022-08-24T16:58:59.399Z,83.70
2022-08-24T17:02:01.521Z,83.90
2022-08-24T17:05:06.562Z,83.90
2022-08-24T17:08:09.994Z,84.00
2022-08-24T17:11:11.701Z,84.40
2022-08-24T17:14:14.581Z,84.50
2022-08-24T17:17:22.639Z,84.40
2022-08-24T17:20:25.640Z,84.40
2022-08-24T17:23:27.867Z,84.30
2022-08-24T17:26:36.682Z,84.40
2022-08-24T17:29:44.384Z,84.40
2022-08-24T17:32:47.884Z,84.30
2022-08-24T17:35:52.012Z,84.10
2022-08-24T17:38:56.374Z,84.30
2022-08-24T17:41:59.935Z,84.30
2022-08-24T17:45:01.862Z,84.70
2022-08-24T17:48:04.110Z,85.20
2022-08-24T17:51:06.323Z,86.00
2022-08-24T17:54:08.006Z,85.60
2022-08-24T17:57:13.095Z,85.80
2022-08-24T18:00:15.502Z,85.90
2022-08-24T18:03:17.282Z,86.20
2022-08-24T18:06:21.090Z,86.10
2022-08-24T18:09:39.198Z,86.20
2022-08-24T18:12:41.510Z,86.30
2022-08-24T18:15:43.351Z,86.60
2022-08-24T18:18:45.463Z,86.60
2022-08-24T18:21:47.896Z,86.80
2022-08-24T18:24:50.082Z,87.30
2022-08-24T18:27:55.487Z,87.60
2022-08-24T18:30:57.338Z,87.90
2022-08-24T18:33:59.128Z,87.80
2022-08-24T18:37:01.437Z,87.90
2022-08-24T18:40:05.121Z,88.20
2022-08-24T18:43:08.565Z,89.20
2022-08-24T18:46:10.492Z,89.50
2022-08-24T18:49:12.381Z,89.20
2022-08-24T18:52:17.025Z,90.10
2022-08-24T18:55:19.189Z,89.90
2022-08-24T18:58:21.271Z,90.10
2022-08-24T19:01:23.132Z,90.30
2022-08-24T19:04:30.231Z,90.40
2022-08-24T19:07:39.803Z,90.30
2022-08-24T19:10:41.734Z,90.70
2022-08-24T19:13:44.787Z,91.10
2022-08-24T19:16:46.631Z,91.60
2022-08-24T19:19:53.328Z,91.80
2022-08-24T19:22:55.587Z,92.00
2022-08-24T19:25:58.037Z,92.10
2022-08-24T19:28:59.851Z,92.20
2022-08-24T19:32:02.774Z,92.40
2022-08-24T19:35:08.141Z,92.50
2022-08-24T19:38:10.030Z,92.70
2022-08-24T19:41:12.800Z,92.80
2022-08-24T19:44:37.649Z,92.80
2022-08-24T19:47:40.698Z,92.80
2022-08-24T19:50:42.558Z,92.80
2022-08-24T19:53:44.568Z,92.70
2022-08-24T19:56:47.663Z,93.00
2022-08-24T19:59:51.820Z,93.20
2022-08-24T20:02:56.219Z,93.20
2022-08-24T20:05:58.563Z,93.30
2022-08-24T20:09:02.018Z,93.40
2022-08-24T20:12:04.293Z,93.50
2022-08-24T20:15:06.603Z,93.50
2022-08-24T20:18:08.626Z,93.50
2022-08-24T20:21:10.672Z,93.60
2022-08-24T20:24:12.467Z,93.50
2022-08-24T20:27:20.509Z,93.60
2022-08-24T20:30:23.380Z,93.70
2022-08-24T20:33:27.651Z,93.10
2022-08-24T20:36:39.516Z,93.40
2022-08-24T20:39:41.515Z,93.30
2022-08-24T20:42:43.627Z,93.50
2022-08-24T20:45:45.584Z,93.70
2022-08-24T20:48:55.909Z,93.80
2022-08-24T20:52:00.215Z,93.90
2022-08-24T20:55:04.965Z,94.10
2022-08-24T20:58:07.112Z,94.10
2022-08-24T21:01:09.093Z,93.90
2022-08-24T21:04:12.117Z,93.50
2022-08-24T21:07:14.164Z,93.00
2022-08-24T21:10:21.446Z,93.00
2022-08-24T21:13:26.925Z,93.10
2022-08-24T21:16:29.014Z,92.60
2022-08-24T21:19:31.301Z,92.60
2022-08-24T21:22:33.065Z,92.90
2022-08-24T21:25:35.627Z,93.00
2022-08-24T21:28:40.044Z,93.10
2022-08-24T21:32:01.975Z,93.20
2022-08-24T21:35:04.130Z,93.20
2022-08-24T21:38:07.927Z,93.40
2022-08-24T21:41:10.419Z,93.50
2022-08-24T21:44:12.149Z,93.60
2022-08-24T21:47:14.239Z,93.70
2022-08-24T21:50:18.319Z,93.90
2022-08-24T21:53:20.021Z,94.00
2022-08-24T21:56:27.558Z,94.20
2022-08-24T21:59:29.275Z,94.10
2022-08-24T22:02:31.168Z,93.90
2022-08-24T22:05:33.079Z,94.00
2022-08-24T22:08:35.818Z,93.90
2022-08-24T22:11:37.812Z,93.60
2022-08-24T22:14:39.534Z,93.80
2022-08-24T22:17:42.528Z,93.90
2022-08-24T22:20:44.529Z,93.90
2022-08-24T22:23:46.671Z,94.10
2022-08-24T22:26:48.439Z,94.10
2022-08-24T22:29:52.676Z,94.20
2022-08-24T22:32:54.704Z,94.30
2022-08-24T22:35:56.689Z,94.50
2022-08-24T22:38:59.642Z,94.70
2022-08-24T22:42:01.519Z,94.80
2022-08-24T22:45:04.487Z,95.00
2022-08-24T22:48:06.393Z,95.10
2022-08-24T22:51:12.419Z,95.20
2022-08-24T22:54:14.633Z,95.40
2022-08-24T22:57:19.763Z,95.30
2022-08-24T23:00:21.937Z,95.30
2022-08-24T23:03:23.766Z,95.30
2022-08-24T23:06:28.314Z,95.30
2022-08-24T23:09:41.613Z,95.10
2022-08-24T23:12:47.017Z,94.90
2022-08-24T23:15:48.795Z,94.90
2022-08-24T23:19:09.082Z,94.80
2022-08-24T23:22:13.943Z,94.80
2022-08-24T23:25:15.855Z,95.00
2022-08-24T23:28:18.112Z,95.10
2022-08-24T23:31:21.749Z,95.10
2022-08-24T23:34:23.982Z,95.10
2022-08-24T23:37:25.851Z,95.10
2022-08-24T23:40:27.921Z,95.10
2022-08-24T23:43:29.928Z,95.30
2022-08-24T23:46:32.008Z,95.50
2022-08-24T23:49:34.794Z,95.70
2022-08-24T23:52:39.582Z,95.90
2022-08-24T23:55:41.503Z,96.00
2022-08-24T23:58:44.979Z,96.10
